VLG8871 LEAL-LEPA
Flight info
| Callsign | VLG8871 |
|---|---|
| Flight time | 0h 35m |
| Altitude | 24000 |
| Route | MITOS N851 RUXET |
| Aircraft | A20N/M-SDE2E3FGHIRWXY/LB1 |
Departure
| Time | 2026-05-05 19:59 |
|---|---|
| Airport | Alicante-Elche Miguel Hernández Airport (LEAL) |
Arrival
| Time | 2026-05-05 20:35 |
|---|---|
| Airport | Palma de Mallorca Airport (LEPA) |
| Time | Latitude | Longitude | Altitude | Speed | Heading |
|---|---|---|---|---|---|
| 2026-05-05 19:48 | 38.28524 | -0.55232 | 84 ft | 0 kts | 10° |
| 2026-05-05 19:51 | 38.28522 | -0.55232 | 84 ft | 1 kts | 10° |
| 2026-05-05 19:51 | 38.28508 | -0.55236 | 85 ft | 2 kts | 11° |
| 2026-05-05 19:51 | 38.28493 | -0.55239 | 85 ft | 2 kts | 10° |
| 2026-05-05 19:51 | 38.28479 | -0.55243 | 84 ft | 2 kts | 11° |
| 2026-05-05 19:52 | 38.28464 | -0.55246 | 84 ft | 2 kts | 10° |
| 2026-05-05 19:52 | 38.28452 | -0.55250 | 84 ft | 1 kts | 46° |
| 2026-05-05 19:52 | 38.28448 | -0.55262 | 85 ft | 0 kts | 95° |
| 2026-05-05 19:52 | 38.28450 | -0.55270 | 85 ft | 1 kts | 101° |
| 2026-05-05 19:53 | 38.28450 | -0.55272 | 85 ft | 0 kts | 100° |
| 2026-05-05 19:54 | 38.28449 | -0.55266 | 85 ft | 3 kts | 100° |
| 2026-05-05 19:54 | 38.28436 | -0.55186 | 82 ft | 11 kts | 111° |
| 2026-05-05 19:55 | 38.28365 | -0.55190 | 83 ft | 12 kts | 222° |
| 2026-05-05 19:55 | 38.28327 | -0.55302 | 86 ft | 17 kts | 268° |
| 2026-05-05 19:55 | 38.28345 | -0.55472 | 92 ft | 21 kts | 280° |
| 2026-05-05 19:55 | 38.28371 | -0.55660 | 97 ft | 22 kts | 281° |
| 2026-05-05 19:56 | 38.28401 | -0.55867 | 103 ft | 24 kts | 279° |
| 2026-05-05 19:56 | 38.28432 | -0.56092 | 108 ft | 27 kts | 279° |
| 2026-05-05 19:56 | 38.28466 | -0.56332 | 114 ft | 27 kts | 280° |
| 2026-05-05 19:56 | 38.28500 | -0.56569 | 121 ft | 27 kts | 279° |
| 2026-05-05 19:57 | 38.28533 | -0.56807 | 128 ft | 26 kts | 280° |
| 2026-05-05 19:57 | 38.28562 | -0.57023 | 135 ft | 22 kts | 278° |
| 2026-05-05 19:57 | 38.28587 | -0.57201 | 142 ft | 18 kts | 280° |
| 2026-05-05 19:57 | 38.28606 | -0.57332 | 148 ft | 11 kts | 278° |
| 2026-05-05 19:58 | 38.28577 | -0.57419 | 151 ft | 12 kts | 207° |
| 2026-05-05 19:58 | 38.28492 | -0.57444 | 152 ft | 12 kts | 187° |
| 2026-05-05 19:58 | 38.28431 | -0.57355 | 148 ft | 22 kts | 101° |
| 2026-05-05 19:58 | 38.28357 | -0.56832 | 128 ft | 98 kts | 99° |
| 2026-05-05 19:59 | 38.28202 | -0.55695 | 98 ft | 159 kts | 100° |
| 2026-05-05 19:59 | 38.28000 | -0.54240 | 528 ft | 172 kts | 101° |
| 2026-05-05 19:59 | 38.27785 | -0.52739 | 1187 ft | 176 kts | 101° |
| 2026-05-05 19:59 | 38.27567 | -0.51226 | 1883 ft | 178 kts | 99° |
| 2026-05-05 20:00 | 38.27640 | -0.49634 | 2425 ft | 189 kts | 65° |
| 2026-05-05 20:00 | 38.28356 | -0.48169 | 2952 ft | 202 kts | 55° |
| 2026-05-05 20:00 | 38.29163 | -0.46596 | 3372 ft | 225 kts | 56° |
| 2026-05-05 20:00 | 38.30043 | -0.44857 | 3910 ft | 244 kts | 56° |
| 2026-05-05 20:01 | 38.30989 | -0.42977 | 4480 ft | 262 kts | 56° |
| 2026-05-05 20:01 | 38.32006 | -0.40956 | 5200 ft | 273 kts | 56° |
| 2026-05-05 20:01 | 38.32874 | -0.38793 | 6099 ft | 278 kts | 66° |
| 2026-05-05 20:01 | 38.33563 | -0.36490 | 6988 ft | 282 kts | 68° |
| 2026-05-05 20:02 | 38.34249 | -0.34116 | 7825 ft | 288 kts | 68° |
| 2026-05-05 20:02 | 38.34959 | -0.31730 | 8646 ft | 293 kts | 68° |
| 2026-05-05 20:02 | 38.35718 | -0.29239 | 9453 ft | 299 kts | 68° |
| 2026-05-05 20:02 | 38.36492 | -0.26782 | 10227 ft | 304 kts | 66° |
| 2026-05-05 20:03 | 38.37333 | -0.24254 | 10756 ft | 319 kts | 66° |
| 2026-05-05 20:03 | 38.38232 | -0.21585 | 11175 ft | 337 kts | 66° |
| 2026-05-05 20:03 | 38.39182 | -0.18760 | 11547 ft | 355 kts | 66° |
| 2026-05-05 20:03 | 38.40165 | -0.15821 | 11897 ft | 373 kts | 66° |
| 2026-05-05 20:04 | 38.41216 | -0.12662 | 12284 ft | 389 kts | 66° |
| 2026-05-05 20:04 | 38.42272 | -0.09480 | 12908 ft | 396 kts | 66° |
| 2026-05-05 20:04 | 38.43342 | -0.06248 | 13587 ft | 401 kts | 66° |
| 2026-05-05 20:04 | 38.44442 | -0.02926 | 14222 ft | 406 kts | 66° |
| 2026-05-05 20:05 | 38.45531 | 0.00382 | 14854 ft | 412 kts | 67° |
| 2026-05-05 20:05 | 38.46629 | 0.03773 | 15484 ft | 417 kts | 67° |
| 2026-05-05 20:05 | 38.47737 | 0.07224 | 16109 ft | 421 kts | 67° |
| 2026-05-05 20:05 | 38.48846 | 0.10684 | 16702 ft | 426 kts | 67° |
| 2026-05-05 20:06 | 38.49980 | 0.14221 | 17314 ft | 430 kts | 67° |
| 2026-05-05 20:06 | 38.51137 | 0.17836 | 17900 ft | 435 kts | 67° |
| 2026-05-05 20:06 | 38.52287 | 0.21430 | 18454 ft | 440 kts | 67° |
| 2026-05-05 20:06 | 38.53454 | 0.25082 | 19052 ft | 444 kts | 67° |
| 2026-05-05 20:07 | 38.54623 | 0.28749 | 19615 ft | 448 kts | 68° |
| 2026-05-05 20:07 | 38.55808 | 0.32466 | 20156 ft | 452 kts | 68° |
| 2026-05-05 20:07 | 38.56997 | 0.36203 | 20688 ft | 456 kts | 67° |
| 2026-05-05 20:07 | 38.58201 | 0.39995 | 21229 ft | 460 kts | 67° |
| 2026-05-05 20:08 | 38.59405 | 0.43795 | 21785 ft | 463 kts | 67° |
| 2026-05-05 20:08 | 38.60622 | 0.47634 | 22326 ft | 466 kts | 67° |
| 2026-05-05 20:08 | 38.61838 | 0.51476 | 22766 ft | 470 kts | 67° |
| 2026-05-05 20:08 | 38.63062 | 0.55348 | 22886 ft | 471 kts | 67° |
| 2026-05-05 20:09 | 38.64282 | 0.59211 | 22890 ft | 471 kts | 67° |
| 2026-05-05 20:09 | 38.65507 | 0.63135 | 22892 ft | 471 kts | 69° |
| 2026-05-05 20:09 | 38.66546 | 0.67112 | 22900 ft | 470 kts | 74° |
| 2026-05-05 20:09 | 38.67310 | 0.71157 | 22900 ft | 470 kts | 80° |
| 2026-05-05 20:10 | 38.67838 | 0.75309 | 22903 ft | 470 kts | 83° |
| 2026-05-05 20:10 | 38.68289 | 0.79470 | 22904 ft | 470 kts | 83° |
| 2026-05-05 20:10 | 38.68730 | 0.83656 | 22906 ft | 471 kts | 83° |
| 2026-05-05 20:10 | 38.69172 | 0.87840 | 22903 ft | 471 kts | 83° |
| 2026-05-05 20:11 | 38.69622 | 0.92040 | 22897 ft | 471 kts | 83° |
| 2026-05-05 20:11 | 38.70074 | 0.96208 | 22906 ft | 470 kts | 83° |
| 2026-05-05 20:11 | 38.70528 | 1.00388 | 22907 ft | 470 kts | 83° |
| 2026-05-05 20:11 | 38.70978 | 1.04531 | 22903 ft | 470 kts | 83° |
| 2026-05-05 20:12 | 38.71429 | 1.08693 | 22905 ft | 470 kts | 83° |
| 2026-05-05 20:12 | 38.71882 | 1.12876 | 22904 ft | 471 kts | 83° |
| 2026-05-05 20:12 | 38.72338 | 1.17102 | 22900 ft | 471 kts | 83° |
| 2026-05-05 20:12 | 38.72784 | 1.21253 | 22904 ft | 471 kts | 83° |
| 2026-05-05 20:13 | 38.73231 | 1.25413 | 22901 ft | 471 kts | 83° |
| 2026-05-05 20:13 | 38.73680 | 1.29615 | 22902 ft | 470 kts | 83° |
| 2026-05-05 20:13 | 38.74119 | 1.33754 | 22902 ft | 470 kts | 83° |
| 2026-05-05 20:13 | 38.74560 | 1.37916 | 22904 ft | 470 kts | 83° |
| 2026-05-05 20:14 | 38.75003 | 1.42117 | 22905 ft | 471 kts | 83° |
| 2026-05-05 20:14 | 38.75441 | 1.46270 | 22907 ft | 471 kts | 83° |
| 2026-05-05 20:14 | 38.75885 | 1.50508 | 22905 ft | 472 kts | 83° |
| 2026-05-05 20:14 | 38.76320 | 1.54683 | 22907 ft | 471 kts | 83° |
| 2026-05-05 20:15 | 38.76752 | 1.58839 | 22915 ft | 472 kts | 83° |
| 2026-05-05 20:15 | 38.77189 | 1.63051 | 22904 ft | 472 kts | 83° |
| 2026-05-05 20:15 | 38.77622 | 1.67236 | 22900 ft | 471 kts | 84° |
| 2026-05-05 20:15 | 38.78050 | 1.71383 | 22907 ft | 471 kts | 84° |
| 2026-05-05 20:16 | 38.78475 | 1.75540 | 22913 ft | 471 kts | 84° |
| 2026-05-05 20:16 | 38.78898 | 1.79705 | 22905 ft | 472 kts | 84° |
| 2026-05-05 20:16 | 38.79323 | 1.83888 | 22908 ft | 472 kts | 84° |
| 2026-05-05 20:16 | 38.79760 | 1.88055 | 22900 ft | 472 kts | 82° |
| 2026-05-05 20:17 | 38.80631 | 1.92144 | 22887 ft | 471 kts | 68° |
| 2026-05-05 20:17 | 38.82124 | 1.95842 | 22509 ft | 467 kts | 54° |
| 2026-05-05 20:17 | 38.84060 | 1.99189 | 21619 ft | 470 kts | 50° |
| 2026-05-05 20:17 | 38.86111 | 2.02448 | 20789 ft | 472 kts | 49° |
| 2026-05-05 20:18 | 38.88169 | 2.05701 | 20162 ft | 469 kts | 49° |
| 2026-05-05 20:18 | 38.90194 | 2.08955 | 19566 ft | 464 kts | 50° |
| 2026-05-05 20:18 | 38.92184 | 2.12201 | 18972 ft | 460 kts | 50° |
| 2026-05-05 20:18 | 38.94147 | 2.15436 | 18369 ft | 456 kts | 50° |
| 2026-05-05 20:19 | 38.96070 | 2.18621 | 17766 ft | 453 kts | 51° |
| 2026-05-05 20:19 | 38.97998 | 2.21822 | 17178 ft | 449 kts | 51° |
| 2026-05-05 20:19 | 38.99887 | 2.24967 | 16599 ft | 445 kts | 51° |
| 2026-05-05 20:19 | 39.01780 | 2.28119 | 16033 ft | 441 kts | 51° |
| 2026-05-05 20:20 | 39.03636 | 2.31207 | 15480 ft | 436 kts | 51° |
| 2026-05-05 20:20 | 39.05471 | 2.34261 | 14930 ft | 432 kts | 51° |
| 2026-05-05 20:20 | 39.07287 | 2.37290 | 14446 ft | 425 kts | 51° |
| 2026-05-05 20:20 | 39.09082 | 2.40291 | 14039 ft | 417 kts | 51° |
| 2026-05-05 20:21 | 39.10818 | 2.43197 | 13752 ft | 406 kts | 51° |
| 2026-05-05 20:21 | 39.12520 | 2.46049 | 13594 ft | 392 kts | 51° |
| 2026-05-05 20:21 | 39.14146 | 2.48773 | 13446 ft | 379 kts | 51° |
| 2026-05-05 20:21 | 39.15816 | 2.51342 | 13303 ft | 365 kts | 43° |
| 2026-05-05 20:22 | 39.17731 | 2.53411 | 13041 ft | 355 kts | 32° |
| 2026-05-05 20:22 | 39.19756 | 2.55197 | 12777 ft | 347 kts | 30° |
| 2026-05-05 20:22 | 39.21772 | 2.56901 | 12451 ft | 342 kts | 30° |
| 2026-05-05 20:22 | 39.23733 | 2.58561 | 12129 ft | 337 kts | 30° |
| 2026-05-05 20:23 | 39.25679 | 2.60228 | 11814 ft | 332 kts | 30° |
| 2026-05-05 20:23 | 39.27577 | 2.61870 | 11510 ft | 328 kts | 31° |
| 2026-05-05 20:23 | 39.29453 | 2.63502 | 11204 ft | 323 kts | 31° |
| 2026-05-05 20:23 | 39.31308 | 2.65121 | 10895 ft | 319 kts | 31° |
| 2026-05-05 20:24 | 39.33125 | 2.66709 | 10582 ft | 314 kts | 31° |
| 2026-05-05 20:24 | 39.34941 | 2.68297 | 10238 ft | 311 kts | 31° |
| 2026-05-05 20:24 | 39.36715 | 2.69853 | 9887 ft | 308 kts | 31° |
| 2026-05-05 20:24 | 39.38482 | 2.71401 | 9530 ft | 306 kts | 31° |
| 2026-05-05 20:25 | 39.40234 | 2.72937 | 9183 ft | 303 kts | 31° |
| 2026-05-05 20:25 | 39.41981 | 2.74469 | 8844 ft | 300 kts | 32° |
| 2026-05-05 20:25 | 39.43548 | 2.76224 | 8478 ft | 301 kts | 49° |
| 2026-05-05 20:25 | 39.44696 | 2.78501 | 8025 ft | 304 kts | 61° |
| 2026-05-05 20:26 | 39.45653 | 2.80952 | 7609 ft | 304 kts | 63° |
| 2026-05-05 20:26 | 39.46574 | 2.83399 | 7244 ft | 302 kts | 63° |
| 2026-05-05 20:26 | 39.47495 | 2.85822 | 6900 ft | 298 kts | 62° |
| 2026-05-05 20:26 | 39.48408 | 2.88186 | 6568 ft | 295 kts | 62° |
| 2026-05-05 20:27 | 39.49329 | 2.90548 | 6235 ft | 291 kts | 61° |
| 2026-05-05 20:27 | 39.50237 | 2.92862 | 5906 ft | 288 kts | 61° |
| 2026-05-05 20:27 | 39.51147 | 2.95179 | 5577 ft | 285 kts | 61° |
| 2026-05-05 20:27 | 39.52029 | 2.97426 | 5437 ft | 274 kts | 61° |
| 2026-05-05 20:28 | 39.52867 | 2.99568 | 5367 ft | 261 kts | 61° |
| 2026-05-05 20:28 | 39.53668 | 3.01611 | 5277 ft | 250 kts | 61° |
| 2026-05-05 20:28 | 39.54475 | 3.03583 | 5111 ft | 243 kts | 53° |
| 2026-05-05 20:28 | 39.55727 | 3.04931 | 4725 ft | 238 kts | 14° |
| 2026-05-05 20:29 | 39.57319 | 3.04964 | 4349 ft | 230 kts | 338° |
| 2026-05-05 20:29 | 39.58745 | 3.04064 | 4041 ft | 227 kts | 326° |
| 2026-05-05 20:29 | 39.60051 | 3.02896 | 3741 ft | 226 kts | 320° |
| 2026-05-05 20:29 | 39.61259 | 3.01615 | 3453 ft | 224 kts | 316° |
| 2026-05-05 20:30 | 39.62396 | 3.00241 | 3171 ft | 222 kts | 313° |
| 2026-05-05 20:30 | 39.63373 | 2.98778 | 3011 ft | 214 kts | 296° |
| 2026-05-05 20:30 | 39.63629 | 2.96913 | 2983 ft | 213 kts | 267° |
| 2026-05-05 20:30 | 39.63476 | 2.94978 | 2979 ft | 214 kts | 261° |
| 2026-05-05 20:31 | 39.63155 | 2.93117 | 2893 ft | 210 kts | 253° |
| 2026-05-05 20:31 | 39.62622 | 2.91396 | 2619 ft | 204 kts | 245° |
| 2026-05-05 20:31 | 39.61976 | 2.89814 | 2379 ft | 194 kts | 242° |
| 2026-05-05 20:31 | 39.61318 | 2.88362 | 2186 ft | 179 kts | 240° |
| 2026-05-05 20:32 | 39.60692 | 2.87042 | 1923 ft | 167 kts | 240° |
| 2026-05-05 20:32 | 39.60101 | 2.85803 | 1707 ft | 154 kts | 240° |
| 2026-05-05 20:32 | 39.59569 | 2.84685 | 1484 ft | 140 kts | 240° |
| 2026-05-05 20:32 | 39.59082 | 2.83655 | 1292 ft | 133 kts | 240° |
| 2026-05-05 20:33 | 39.58598 | 2.82633 | 1155 ft | 132 kts | 239° |
| 2026-05-05 20:33 | 39.58102 | 2.81619 | 1026 ft | 132 kts | 239° |
| 2026-05-05 20:33 | 39.57619 | 2.80616 | 884 ft | 131 kts | 239° |
| 2026-05-05 20:33 | 39.57148 | 2.79592 | 688 ft | 132 kts | 239° |
| 2026-05-05 20:34 | 39.56684 | 2.78587 | 469 ft | 131 kts | 238° |
| 2026-05-05 20:34 | 39.56202 | 2.77577 | 293 ft | 131 kts | 238° |
| 2026-05-05 20:34 | 39.55730 | 2.76568 | 138 ft | 131 kts | 238° |
| 2026-05-05 20:34 | 39.55260 | 2.75568 | 19 ft | 126 kts | 233° |
| 2026-05-05 20:35 | 39.54872 | 2.74756 | 26 ft | 82 kts | 238° |
| 2026-05-05 20:35 | 39.54666 | 2.74322 | 33 ft | 33 kts | 239° |
| 2026-05-05 20:35 | 39.54574 | 2.74094 | 36 ft | 23 kts | 251° |
| 2026-05-05 20:35 | 39.54549 | 2.73904 | 37 ft | 18 kts | 266° |
| 2026-05-05 20:36 | 39.54546 | 2.73817 | 38 ft | 8 kts | 268° |
| 2026-05-05 20:36 | 39.54546 | 2.73760 | 38 ft | 6 kts | 270° |
| 2026-05-05 20:36 | 39.54558 | 2.73693 | 38 ft | 8 kts | 296° |
| 2026-05-05 20:36 | 39.54601 | 2.73631 | 37 ft | 9 kts | 315° |
| 2026-05-05 20:37 | 39.54634 | 2.73551 | 37 ft | 8 kts | 310° |
| 2026-05-05 20:37 | 39.54684 | 2.73506 | 37 ft | 9 kts | 330° |
| 2026-05-05 20:37 | 39.54716 | 2.73464 | 36 ft | 6 kts | 273° |
| 2026-05-05 20:37 | 39.54704 | 2.73423 | 36 ft | 4 kts | 239° |
| 2026-05-05 20:38 | 39.54694 | 2.73401 | 36 ft | 0 kts | 239° |